< Typhoon 198404 1984 Season Typhoon 198406 >
Typhoon 198405 (CARY)
General InformationTrack Information on Google MapsDetailed Wind InformationList of All Images || Disaster Info.ResourceGoogle EarthGE AnimationAtom FeedGeoJSON
Detalied Best Track (Time Zone = UTC)
Year Month Day Hour Lat. Long. Pressure (hPa) Wind (kt) Class Image Chart
1984 7 6 06 17.0 149.5 1008 0 2 Image Chart
1984 7 6 12 17.0 148.5 1006 0 2 Image Chart
1984 7 6 18 17.5 147.5 1004 0 2 Image Chart
1984 7 7 00 18.0 146.8 1004 0 2 Image Chart
1984 7 7 06 18.7 146.5 1002 0 2 Image Chart
1984 7 7 12 19.2 146.1 998 0 2 Image Chart
1984 7 7 18 19.6 146.0 994 0 2 Image Chart
1984 7 8 00 20.0 146.0 990 45 3 Image Chart
1984 7 8 06 20.4 145.9 990 45 3 Image Chart
1984 7 8 12 20.9 145.7 990 45 3 Image Chart
1984 7 8 18 21.3 145.4 990 45 3 Image Chart
1984 7 9 00 21.8 145.1 985 50 4 Image Chart
1984 7 9 06 21.8 144.8 975 55 4 Image Chart
1984 7 9 12 21.9 144.7 970 65 5 Image Chart
1984 7 9 18 21.9 144.6 965 70 5 Image Chart
1984 7 10 00 21.9 144.5 955 80 5 Image Chart
1984 7 10 06 22.0 144.5 955 80 5 Image Chart
1984 7 10 12 22.1 144.6 970 65 5 Image Chart
1984 7 10 18 22.6 145.0 975 60 4 Image Chart
1984 7 11 00 23.0 145.5 975 60 4 Image Chart
1984 7 11 06 23.8 146.1 980 65 5 Image Chart
1984 7 11 12 24.6 146.7 980 65 5 Image Chart
1984 7 11 18 25.2 147.2 975 65 5 Image Chart
1984 7 12 00 25.7 148.2 975 65 5 Image Chart
1984 7 12 06 26.3 149.0 975 65 5 Image Chart
1984 7 12 12 26.9 149.8 970 65 5 Image Chart
1984 7 12 18 27.6 150.7 970 65 5 Image Chart
1984 7 13 00 28.3 151.3 965 70 5 Image Chart
1984 7 13 06 29.1 151.7 965 70 5 Image Chart
1984 7 13 12 29.6 152.0 965 70 5 Image Chart
1984 7 13 18 29.9 152.4 965 55 4 Image Chart
1984 7 14 00 30.3 152.7 980 45 3 Image Chart
1984 7 14 06 30.6 152.8 980 40 3 Image Chart
1984 7 14 12 31.0 152.8 980 40 3 Image Chart
1984 7 14 18 31.3 152.8 985 35 3 Image Chart
1984 7 15 00 31.6 152.9 985 35 3 Image Chart
1984 7 15 06 31.8 152.8 985 35 3 Image Chart
1984 7 15 12 31.7 152.2 990 40 3 Image Chart
1984 7 15 18 31.4 151.8 990 40 3 Image Chart
1984 7 16 00 31.1 151.3 992 0 2 Image Chart
1984 7 16 06 30.9 151.0 994 0 2 Image Chart
1984 7 16 12 30.8 150.7 994 0 2 Image Chart
1984 7 16 18 30.6 150.4 996 0 2 Image Chart
1984 7 17 00 30.6 149.8 996 0 2 Image Chart
1984 7 17 06 30.6 149.2 998 0 6 Image Chart
1984 7 17 12 30.5 148.3 1000 0 6 Image Chart
1984 7 17 18 30.5 146.9 1000 0 6 Image Chart
1984 7 18 00 30.5 145.5 1000 0 6 Image Chart
1984 7 18 06 30.5 143.5 1002 0 6 Image Chart
1984 7 18 12 30.8 141.9 1002 0 6 Image Chart
1984 7 18 18 31.3 141.1 1002 0 6 Image Chart
1984 7 19 00 31.8 140.8 1002 0 6 Image Chart
1984 7 19 06 31.7 140.0 1002 0 6 Image Chart
1984 7 19 12 31.6 139.5 1002 0 6 Image Chart
1984 7 19 18 31.2 139.0 1002 0 6 Image Chart
1984 7 20 00 31.2 138.5 1002 0 6 Image Chart
1984 7 20 06 31.4 138.1 1002 0 6 Image Chart
1984 7 20 12 31.6 137.7 1003 0 6 Image Chart
1984 7 20 18 31.9 137.4 1003 0 6 Image Chart
1984 7 21 00 32.2 137.2 1004 0 6 Image Chart
Japan Meteorological Agency Best Track Data | Correction Date : 1992-10-21
< Typhoon 198404 1984 Season Typhoon 198406 >

Help